createdAt,value
2022-08-16T00:00:38.671Z,72.72
2022-08-16T00:01:40.754Z,72.92
2022-08-16T00:02:35.024Z,72.63
2022-08-16T00:03:37.631Z,72.72
2022-08-16T00:04:35.012Z,72.63
2022-08-16T00:05:35.286Z,72.63
2022-08-16T00:06:36.509Z,72.63
2022-08-16T00:07:34.967Z,72.53
2022-08-16T00:08:36.829Z,72.53
2022-08-16T00:09:35.834Z,72.83
2022-08-16T00:10:34.935Z,72.53
2022-08-16T00:11:34.948Z,72.42
2022-08-16T00:12:34.915Z,72.03
2022-08-16T00:13:41.815Z,72.53
2022-08-16T00:14:34.889Z,72.33
2022-08-16T00:15:51.576Z,72.13
2022-08-16T00:17:06.637Z,72.42
2022-08-16T00:17:56.386Z,71.92
2022-08-16T00:18:34.856Z,72.23
2022-08-16T00:19:41.796Z,72.13
2022-08-16T00:20:34.827Z,72.42
2022-08-16T00:21:34.849Z,72.23
2022-08-16T00:22:35.220Z,72.23
2022-08-16T00:23:40.324Z,72.42
2022-08-16T00:24:34.789Z,72.23
2022-08-16T00:26:35.104Z,72.42
2022-08-16T00:26:48.425Z,72.92
2022-08-16T00:27:34.745Z,72.72
2022-08-16T00:28:34.735Z,72.72
2022-08-16T00:29:35.060Z,72.83
2022-08-16T00:30:34.724Z,73.03
2022-08-16T00:32:00.065Z,72.72
2022-08-16T00:32:34.750Z,72.83
2022-08-16T00:33:34.693Z,72.92
2022-08-16T00:34:43.465Z,73.33
2022-08-16T00:35:34.955Z,73.06
2022-08-16T00:36:35.104Z,73.26
2022-08-16T00:37:58.378Z,73.46
2022-08-16T00:38:40.335Z,73.66
2022-08-16T00:39:34.689Z,73.56
2022-08-16T00:40:36.619Z,73.66
2022-08-16T00:41:34.600Z,73.86
2022-08-16T00:42:34.629Z,73.86
2022-08-16T00:43:43.147Z,73.66
2022-08-16T00:44:34.616Z,73.56
2022-08-16T00:45:35.745Z,74.06
2022-08-16T00:46:35.536Z,73.76
2022-08-16T00:47:34.538Z,73.76
2022-08-16T00:48:43.838Z,73.66
2022-08-16T00:49:39.740Z,74.06
2022-08-16T00:50:36.217Z,73.96
2022-08-16T00:51:34.491Z,74.26
2022-08-16T00:52:34.481Z,74.00
2022-08-16T00:53:34.472Z,73.90
2022-08-16T00:54:34.464Z,74.10
2022-08-16T00:55:37.653Z,74.10
2022-08-16T00:56:57.518Z,73.70
2022-08-16T00:57:59.146Z,74.00
2022-08-16T00:58:35.362Z,73.90
2022-08-16T00:59:34.592Z,74.06
2022-08-16T01:00:34.420Z,73.70
2022-08-16T01:01:35.949Z,73.80
2022-08-16T01:02:34.405Z,73.80
2022-08-16T01:03:34.965Z,73.90
2022-08-16T01:04:34.363Z,73.90
2022-08-16T01:05:34.354Z,73.90
2022-08-16T01:06:48.946Z,74.00
2022-08-16T01:07:51.882Z,74.10
2022-08-16T01:08:36.168Z,74.10
2022-08-16T01:09:34.362Z,74.10
2022-08-16T01:10:34.294Z,74.50
2022-08-16T01:11:34.284Z,74.00
2022-08-16T01:12:34.298Z,74.10
2022-08-16T01:13:34.254Z,74.20
2022-08-16T01:14:34.600Z,74.10
2022-08-16T01:15:34.245Z,74.10
2022-08-16T01:16:34.241Z,74.20
2022-08-16T01:17:36.900Z,74.10
2022-08-16T01:18:39.935Z,74.10
2022-08-16T01:19:34.207Z,73.80
2022-08-16T01:20:34.251Z,73.80
2022-08-16T01:21:35.607Z,73.80
2022-08-16T01:22:47.164Z,73.80
2022-08-16T01:23:58.643Z,74.10
2022-08-16T01:24:53.577Z,74.20
2022-08-16T01:25:34.594Z,74.00
2022-08-16T01:26:35.540Z,74.10
2022-08-16T01:27:34.538Z,74.10
2022-08-16T01:28:38.638Z,74.20
2022-08-16T01:29:35.730Z,74.40
2022-08-16T01:30:34.219Z,74.10
2022-08-16T01:31:34.076Z,74.20
2022-08-16T01:32:34.533Z,74.20
2022-08-16T01:33:36.003Z,74.00
2022-08-16T01:34:34.042Z,74.20
2022-08-16T01:35:35.305Z,74.30
2022-08-16T01:36:34.017Z,74.40
2022-08-16T01:37:35.651Z,74.20
2022-08-16T01:38:34.030Z,74.00
2022-08-16T01:39:35.414Z,74.00
2022-08-16T01:40:33.975Z,74.20
2022-08-16T01:41:34.317Z,73.70
2022-08-16T01:42:34.030Z,73.60
2022-08-16T01:43:33.944Z,73.80
2022-08-16T01:44:37.759Z,73.60
2022-08-16T01:45:40.402Z,73.60
2022-08-16T01:46:39.404Z,73.70
2022-08-16T01:47:33.908Z,73.60
2022-08-16T01:48:34.380Z,73.50
2022-08-16T01:49:43.044Z,73.50
2022-08-16T01:51:09.712Z,73.80
2022-08-16T01:51:33.857Z,73.60
2022-08-16T01:52:33.866Z,73.60
2022-08-16T01:53:33.831Z,73.50
2022-08-16T01:54:33.872Z,73.90
2022-08-16T01:55:35.593Z,73.50
2022-08-16T01:56:34.678Z,73.50
2022-08-16T01:57:33.803Z,73.60
2022-08-16T01:58:33.818Z,73.70
2022-08-16T01:59:33.768Z,73.39
2022-08-16T02:00:33.766Z,73.39
2022-08-16T02:01:33.880Z,73.30
2022-08-16T02:02:42.310Z,73.50
2022-08-16T02:03:33.738Z,73.50
2022-08-16T02:04:49.345Z,73.50
2022-08-16T02:05:34.865Z,73.50
2022-08-16T02:06:35.510Z,73.60
2022-08-16T02:07:33.697Z,73.50
2022-08-16T02:08:34.249Z,73.50
2022-08-16T02:09:34.090Z,73.70
2022-08-16T02:10:33.914Z,73.50
2022-08-16T02:11:48.545Z,73.39
2022-08-16T02:12:50.455Z,73.39
2022-08-16T02:13:33.636Z,73.50
2022-08-16T02:14:33.685Z,73.10
2022-08-16T02:15:38.735Z,73.30
2022-08-16T02:16:33.595Z,73.30
2022-08-16T02:17:33.593Z,73.30
2022-08-16T02:18:33.580Z,73.19
2022-08-16T02:19:59.407Z,73.00
2022-08-16T02:20:33.591Z,73.19
2022-08-16T02:21:33.562Z,73.30
2022-08-16T02:22:46.645Z,73.30
2022-08-16T02:23:33.521Z,73.39
2022-08-16T02:24:40.976Z,73.30
2022-08-16T02:25:50.734Z,73.50
2022-08-16T02:26:34.206Z,73.60
2022-08-16T02:27:33.506Z,73.39
2022-08-16T02:28:33.478Z,73.50
2022-08-16T02:29:33.826Z,73.39
2022-08-16T02:30:37.014Z,73.50
2022-08-16T02:32:02.582Z,73.70
2022-08-16T02:32:50.679Z,73.60
2022-08-16T02:33:44.636Z,73.50
2022-08-16T02:34:34.934Z,73.60
2022-08-16T02:35:33.395Z,73.70
2022-08-16T02:36:47.716Z,73.80
2022-08-16T02:37:51.556Z,73.50
2022-08-16T02:38:33.449Z,73.70
2022-08-16T02:39:33.415Z,73.70
2022-08-16T02:40:33.371Z,73.70
2022-08-16T02:41:34.185Z,73.60
2022-08-16T02:42:33.325Z,73.93
2022-08-16T02:43:33.613Z,73.93
2022-08-16T02:44:33.335Z,73.93
2022-08-16T02:45:33.295Z,74.23
2022-08-16T02:46:33.727Z,73.93
2022-08-16T02:47:33.276Z,74.03
2022-08-16T02:48:33.271Z,74.03
2022-08-16T02:50:52.769Z,74.13
2022-08-16T02:51:10.825Z,74.23
2022-08-16T02:51:33.218Z,74.13
2022-08-16T02:52:33.220Z,74.13
2022-08-16T02:53:33.215Z,74.43
2022-08-16T02:54:33.196Z,74.33
2022-08-16T02:55:40.760Z,74.23
2022-08-16T02:56:33.206Z,74.43
2022-08-16T02:57:33.594Z,74.23
2022-08-16T02:58:33.154Z,74.33
2022-08-16T02:59:39.762Z,74.63
2022-08-16T03:00:34.982Z,74.43
2022-08-16T03:01:33.710Z,74.63
2022-08-16T03:02:33.155Z,74.43
2022-08-16T03:04:40.838Z,74.84
2022-08-16T03:04:55.935Z,74.73
2022-08-16T03:05:33.078Z,74.63
2022-08-16T03:06:42.308Z,74.93
2022-08-16T03:07:37.228Z,74.84
2022-08-16T03:08:50.231Z,74.84
2022-08-16T03:09:33.033Z,74.93
2022-08-16T03:10:33.286Z,75.13
2022-08-16T03:11:35.561Z,75.23
2022-08-16T03:12:37.714Z,75.34
2022-08-16T03:13:39.983Z,75.13
2022-08-16T03:14:33.027Z,75.27
2022-08-16T03:15:32.962Z,75.47
2022-08-16T03:16:39.128Z,75.77
2022-08-16T03:17:32.947Z,75.57
2022-08-16T03:18:34.615Z,75.77
2022-08-16T03:19:47.038Z,75.77
2022-08-16T03:20:32.959Z,75.77
2022-08-16T03:21:37.971Z,75.77
2022-08-16T03:22:32.893Z,75.67
2022-08-16T03:23:35.819Z,75.77
2022-08-16T03:24:32.917Z,76.17
2022-08-16T03:25:40.998Z,75.97
2022-08-16T03:26:32.913Z,76.07
2022-08-16T03:27:33.063Z,76.07
2022-08-16T03:28:32.831Z,75.97
2022-08-16T03:29:32.829Z,76.07
2022-08-16T03:30:32.812Z,76.37
2022-08-16T03:31:34.905Z,76.47
2022-08-16T03:32:32.813Z,76.37
2022-08-16T03:33:32.787Z,76.28
2022-08-16T03:34:32.762Z,76.28
2022-08-16T03:35:33.360Z,76.28
2022-08-16T03:36:32.998Z,76.37
2022-08-16T03:37:32.735Z,76.47
2022-08-16T03:38:34.584Z,76.37
2022-08-16T03:39:32.742Z,76.37
2022-08-16T03:40:33.349Z,76.47
2022-08-16T03:41:49.579Z,76.78
2022-08-16T03:42:32.710Z,76.67
2022-08-16T03:43:51.687Z,76.67
2022-08-16T03:44:43.826Z,76.57
2022-08-16T03:45:32.658Z,76.87
2022-08-16T03:46:45.103Z,76.87
2022-08-16T03:47:34.231Z,76.67
2022-08-16T03:48:36.551Z,76.81
2022-08-16T03:49:36.674Z,76.91
2022-08-16T03:50:32.650Z,77.01
2022-08-16T03:51:32.581Z,77.01
2022-08-16T03:52:32.582Z,77.21
2022-08-16T03:53:37.822Z,77.11
2022-08-16T03:54:32.563Z,77.11
2022-08-16T03:55:41.653Z,77.21
2022-08-16T03:56:32.569Z,77.31
2022-08-16T03:57:35.730Z,77.31
2022-08-16T03:58:32.506Z,77.31
2022-08-16T03:59:32.534Z,77.41
2022-08-16T04:00:36.184Z,77.51
2022-08-16T04:01:32.520Z,77.61
2022-08-16T04:02:32.867Z,77.61
2022-08-16T04:03:32.498Z,77.72
2022-08-16T04:04:33.956Z,77.72
2022-08-16T04:05:32.465Z,77.72
2022-08-16T04:06:32.451Z,77.81
2022-08-16T04:07:33.452Z,78.02
2022-08-16T04:08:32.438Z,78.11
2022-08-16T04:09:35.402Z,77.91
2022-08-16T04:10:36.847Z,77.91
2022-08-16T04:11:36.913Z,78.02
2022-08-16T04:12:53.479Z,77.91
2022-08-16T04:13:58.884Z,77.91
2022-08-16T04:14:33.536Z,78.22
2022-08-16T04:15:32.347Z,78.02
2022-08-16T04:16:33.855Z,78.02
2022-08-16T04:17:32.295Z,78.22
2022-08-16T04:18:32.292Z,78.22
2022-08-16T04:19:32.300Z,78.22
2022-08-16T04:20:36.820Z,78.22
2022-08-16T04:21:32.298Z,78.42
2022-08-16T04:22:32.258Z,78.25
2022-08-16T04:23:32.561Z,78.22
2022-08-16T04:24:32.224Z,78.35
2022-08-16T04:25:32.239Z,78.45
2022-08-16T04:26:32.559Z,78.45
2022-08-16T04:27:32.213Z,78.55
2022-08-16T04:28:55.660Z,78.55
2022-08-16T04:29:43.330Z,78.66
2022-08-16T04:30:35.731Z,78.96
2022-08-16T04:31:32.155Z,78.75
2022-08-16T04:32:32.185Z,78.96
2022-08-16T04:33:34.885Z,78.96
2022-08-16T04:34:32.314Z,78.85
2022-08-16T04:35:34.394Z,79.05
2022-08-16T04:36:32.434Z,78.96
2022-08-16T04:37:32.088Z,79.05
2022-08-16T04:38:32.119Z,79.25
2022-08-16T04:39:46.079Z,79.05
2022-08-16T04:40:32.152Z,79.16
2022-08-16T04:41:32.833Z,79.16
2022-08-16T04:42:35.923Z,79.16
2022-08-16T04:43:32.028Z,79.16
2022-08-16T04:44:53.228Z,79.25
2022-08-16T04:45:36.055Z,79.36
2022-08-16T04:47:01.094Z,79.25
2022-08-16T04:47:35.488Z,79.55
2022-08-16T04:48:33.881Z,79.46
2022-08-16T04:49:43.584Z,79.55
2022-08-16T04:50:31.986Z,79.55
2022-08-16T04:51:35.753Z,79.55
2022-08-16T04:52:33.268Z,79.55
2022-08-16T04:53:31.918Z,79.55
2022-08-16T04:54:31.913Z,79.55
2022-08-16T04:55:37.690Z,79.66
2022-08-16T04:56:31.957Z,79.75
2022-08-16T04:57:31.905Z,79.75
2022-08-16T04:58:44.741Z,79.86
2022-08-16T04:59:31.879Z,79.80
2022-08-16T05:00:33.673Z,79.80
2022-08-16T05:01:58.055Z,79.90
2022-08-16T05:02:42.231Z,79.90
2022-08-16T05:03:31.860Z,79.90
2022-08-16T05:04:31.841Z,80.10
2022-08-16T05:05:32.921Z,80.10
2022-08-16T05:06:42.486Z,79.99
2022-08-16T05:07:31.773Z,80.19
2022-08-16T05:08:31.834Z,80.10
2022-08-16T05:09:31.743Z,80.10
2022-08-16T05:10:31.732Z,80.30
2022-08-16T05:11:32.214Z,80.50
2022-08-16T05:12:31.721Z,80.40
2022-08-16T05:13:41.112Z,80.60
2022-08-16T05:14:45.650Z,80.60
2022-08-16T05:15:31.684Z,80.50
2022-08-16T05:16:31.664Z,80.60
2022-08-16T05:17:31.680Z,80.60
2022-08-16T05:18:31.652Z,80.50
2022-08-16T05:19:36.118Z,80.50
2022-08-16T05:20:35.675Z,80.70
2022-08-16T05:21:35.900Z,80.60
2022-08-16T05:22:31.609Z,80.50
2022-08-16T05:23:31.921Z,80.40
2022-08-16T05:24:31.575Z,80.50
2022-08-16T05:25:41.340Z,80.50
2022-08-16T05:26:31.863Z,80.36
2022-08-16T05:27:31.546Z,80.06
2022-08-16T05:28:37.539Z,80.06
2022-08-16T05:29:59.901Z,80.06
2022-08-16T05:30:36.930Z,80.06
2022-08-16T05:31:31.531Z,79.96
2022-08-16T05:32:34.230Z,80.06
2022-08-16T05:33:31.484Z,79.86
2022-08-16T05:34:31.476Z,79.75
2022-08-16T05:35:31.460Z,79.55
2022-08-16T05:36:33.862Z,79.36
2022-08-16T05:37:39.684Z,79.32
2022-08-16T05:38:38.813Z,79.22
2022-08-16T05:39:31.475Z,79.12
2022-08-16T05:40:31.436Z,79.12
2022-08-16T05:41:31.405Z,78.42
2022-08-16T05:42:35.598Z,78.72
2022-08-16T05:43:32.171Z,78.58
2022-08-16T05:44:31.404Z,78.28
2022-08-16T05:45:31.358Z,78.18
2022-08-16T05:46:31.504Z,77.87
2022-08-16T05:47:31.339Z,77.67
2022-08-16T05:48:31.332Z,77.58
2022-08-16T05:49:38.468Z,77.37
2022-08-16T05:50:34.737Z,77.58
2022-08-16T05:51:35.246Z,77.37
2022-08-16T05:52:31.280Z,77.17
2022-08-16T05:53:31.290Z,77.34
2022-08-16T05:54:31.264Z,77.14
2022-08-16T05:55:31.260Z,76.94
2022-08-16T05:56:31.573Z,76.94
2022-08-16T05:57:34.709Z,76.84
2022-08-16T05:58:33.144Z,76.54
2022-08-16T05:59:31.220Z,77.04
2022-08-16T06:00:31.190Z,76.74
2022-08-16T06:01:32.965Z,76.54
2022-08-16T06:02:33.544Z,76.64
2022-08-16T06:03:31.574Z,76.54
2022-08-16T06:04:35.836Z,76.43
2022-08-16T06:05:31.154Z,76.64
2022-08-16T06:06:31.172Z,76.78
2022-08-16T06:07:31.930Z,76.98
2022-08-16T06:08:32.337Z,77.17
2022-08-16T06:09:44.460Z,77.08
2022-08-16T06:10:32.310Z,77.28
2022-08-16T06:11:31.126Z,77.37
2022-08-16T06:12:32.082Z,77.28
2022-08-16T06:13:32.537Z,77.37
2022-08-16T06:14:31.075Z,77.17
2022-08-16T06:15:31.026Z,77.67
2022-08-16T06:16:31.321Z,77.78
2022-08-16T06:17:43.269Z,77.87
2022-08-16T06:18:31.002Z,77.58
2022-08-16T06:19:33.753Z,77.67
2022-08-16T06:20:35.202Z,77.48
2022-08-16T06:21:30.971Z,77.58
2022-08-16T06:22:38.955Z,77.58
2022-08-16T06:23:32.162Z,76.84
2022-08-16T06:24:54.508Z,76.54
2022-08-16T06:25:36.008Z,76.43
2022-08-16T06:26:36.571Z,76.24
2022-08-16T06:27:40.772Z,76.20
2022-08-16T06:28:35.641Z,75.20
2022-08-16T06:29:30.913Z,74.87
2022-08-16T06:30:30.869Z,73.09
2022-08-16T06:31:30.861Z,70.89
2022-08-16T06:32:33.403Z,68.30
2022-08-16T06:33:41.557Z,66.74
2022-08-16T06:34:55.421Z,64.88
2022-08-16T06:35:40.302Z,63.46
2022-08-16T06:36:32.227Z,62.43
2022-08-16T06:37:36.932Z,61.48
2022-08-16T06:38:32.808Z,60.56
2022-08-16T06:39:30.947Z,59.96
2022-08-16T06:40:33.663Z,59.61
2022-08-16T06:41:39.734Z,58.61
2022-08-16T06:42:47.262Z,58.42
2022-08-16T06:43:30.775Z,58.72
2022-08-16T06:44:30.805Z,58.29
2022-08-16T06:45:30.727Z,57.89
2022-08-16T06:46:31.689Z,57.67
2022-08-16T06:47:52.462Z,57.57
2022-08-16T06:48:32.712Z,57.27
2022-08-16T06:49:31.367Z,57.46
2022-08-16T06:50:30.716Z,57.37
2022-08-16T06:51:45.290Z,57.67
2022-08-16T06:52:59.615Z,57.99
2022-08-16T06:53:30.690Z,58.81
2022-08-16T06:54:30.637Z,58.72
2022-08-16T06:55:33.667Z,59.04
2022-08-16T06:56:30.676Z,59.53
2022-08-16T06:57:30.618Z,60.06
2022-08-16T06:58:31.530Z,60.78
2022-08-16T06:59:30.885Z,60.98
2022-08-16T07:00:30.578Z,61.51
2022-08-16T07:01:42.779Z,62.34
2022-08-16T07:02:32.973Z,62.43
2022-08-16T07:03:32.275Z,62.50
2022-08-16T07:04:33.123Z,62.21
2022-08-16T07:05:42.123Z,61.41
2022-08-16T07:06:30.534Z,62.01
2022-08-16T07:07:34.384Z,61.88
2022-08-16T07:08:30.541Z,61.68
2022-08-16T07:09:30.754Z,60.46
2022-08-16T07:10:30.474Z,60.98
2022-08-16T07:11:45.730Z,60.85
2022-08-16T07:12:36.833Z,60.75
2022-08-16T07:14:30.484Z,60.78
2022-08-16T07:15:30.471Z,61.18
2022-08-16T07:16:30.449Z,60.98
2022-08-16T07:17:30.413Z,61.08
2022-08-16T07:18:30.413Z,60.56
2022-08-16T07:20:01.816Z,60.23
2022-08-16T07:20:47.035Z,59.93
2022-08-16T07:21:45.572Z,59.51
2022-08-16T07:22:37.742Z,59.91
2022-08-16T07:23:37.448Z,60.03
2022-08-16T07:24:31.201Z,59.31
2022-08-16T07:25:30.345Z,58.72
2022-08-16T07:26:30.352Z,59.01
2022-08-16T07:27:32.113Z,58.91
2022-08-16T07:28:30.320Z,59.31
2022-08-16T07:29:31.834Z,59.31
2022-08-16T07:30:39.877Z,58.91
2022-08-16T07:31:37.461Z,59.53
2022-08-16T07:32:31.732Z,60.23
2022-08-16T07:33:53.184Z,59.93
2022-08-16T07:34:35.767Z,59.74
2022-08-16T07:35:30.261Z,59.70
2022-08-16T07:36:30.834Z,59.11
2022-08-16T07:37:30.243Z,58.51
2022-08-16T07:38:34.180Z,58.88
2022-08-16T07:39:33.512Z,58.59
2022-08-16T07:40:57.912Z,58.36
2022-08-16T07:41:30.201Z,57.67
2022-08-16T07:42:35.084Z,57.24
2022-08-16T07:43:30.182Z,56.95
2022-08-16T07:44:49.018Z,57.24
2022-08-16T07:45:30.157Z,57.24
2022-08-16T07:46:37.560Z,56.92
2022-08-16T07:47:31.657Z,56.82
2022-08-16T07:48:30.121Z,55.90
2022-08-16T07:49:32.333Z,56.00
2022-08-16T07:50:55.985Z,56.32
2022-08-16T07:51:30.118Z,57.04
2022-08-16T07:52:30.193Z,57.44
2022-08-16T07:53:30.296Z,57.44
2022-08-16T07:54:32.321Z,57.54
2022-08-16T07:55:30.071Z,57.12
2022-08-16T07:56:34.010Z,56.52
2022-08-16T07:57:30.059Z,57.02
2022-08-16T07:58:33.779Z,56.42
2022-08-16T07:59:42.953Z,56.20
2022-08-16T08:00:30.021Z,56.49
2022-08-16T08:01:30.014Z,55.68
2022-08-16T08:02:30.053Z,55.08
2022-08-16T08:03:39.219Z,54.76
2022-08-16T08:04:33.559Z,54.17
2022-08-16T08:05:35.873Z,53.47
2022-08-16T08:06:30.006Z,54.06
2022-08-16T08:07:32.620Z,54.06
2022-08-16T08:08:49.538Z,53.97
2022-08-16T08:09:29.959Z,54.14
2022-08-16T08:10:30.232Z,54.24
2022-08-16T08:11:29.950Z,53.85
2022-08-16T08:12:32.317Z,53.94
2022-08-16T08:13:42.564Z,53.15
2022-08-16T08:14:30.449Z,53.35
2022-08-16T08:15:34.173Z,53.25
2022-08-16T08:16:30.465Z,53.25
2022-08-16T08:17:43.153Z,52.95
2022-08-16T08:18:31.031Z,53.67
2022-08-16T08:19:29.857Z,54.49
2022-08-16T08:20:29.895Z,55.11
2022-08-16T08:22:00.793Z,55.18
2022-08-16T08:22:29.851Z,54.86
2022-08-16T08:23:29.819Z,55.05
2022-08-16T08:24:32.183Z,53.85
2022-08-16T08:25:53.627Z,52.93
2022-08-16T08:26:29.863Z,53.28
2022-08-16T08:27:32.699Z,54.49
2022-08-16T08:28:29.821Z,54.59
2022-08-16T08:29:37.233Z,54.98
2022-08-16T08:30:55.980Z,55.38
2022-08-16T08:31:29.771Z,54.96
2022-08-16T08:32:58.423Z,53.25
2022-08-16T08:33:29.781Z,53.52
2022-08-16T08:34:29.737Z,51.52
2022-08-16T08:35:29.727Z,51.20
2022-08-16T08:36:33.600Z,50.73
2022-08-16T08:37:54.192Z,51.23
2022-08-16T08:38:43.786Z,51.45
2022-08-16T08:39:29.741Z,52.14
2022-08-16T08:40:29.943Z,52.46
2022-08-16T08:41:29.673Z,52.63
2022-08-16T08:42:29.661Z,52.44
2022-08-16T08:43:29.650Z,51.75
2022-08-16T08:44:30.847Z,51.32
2022-08-16T08:45:48.320Z,51.30
2022-08-16T08:46:35.735Z,51.10
2022-08-16T08:47:29.617Z,50.68
2022-08-16T08:48:33.350Z,50.29
2022-08-16T08:49:47.076Z,50.09
2022-08-16T08:50:32.120Z,50.12
2022-08-16T08:51:32.101Z,50.93
2022-08-16T08:52:34.460Z,50.54
2022-08-16T08:53:30.618Z,51.62
2022-08-16T08:54:29.647Z,50.73
2022-08-16T08:55:29.556Z,51.05
2022-08-16T08:56:29.875Z,52.26
2022-08-16T08:57:29.520Z,52.56
2022-08-16T08:58:34.566Z,52.58
2022-08-16T08:59:29.512Z,52.88
2022-08-16T09:00:30.230Z,53.67
2022-08-16T09:01:31.903Z,53.15
2022-08-16T09:02:29.523Z,52.11
2022-08-16T09:03:29.469Z,51.59
2022-08-16T09:04:29.692Z,51.57
2022-08-16T09:05:35.965Z,49.97
2022-08-16T09:06:29.448Z,49.95
2022-08-16T09:07:29.436Z,49.04
2022-08-16T09:08:29.761Z,49.11
2022-08-16T09:09:33.376Z,47.73
2022-08-16T09:10:29.803Z,48.39
2022-08-16T09:11:40.445Z,47.92
2022-08-16T09:12:35.729Z,49.45
2022-08-16T09:13:32.056Z,49.55
2022-08-16T09:14:29.422Z,49.06
2022-08-16T09:15:32.847Z,49.38
2022-08-16T09:17:01.461Z,50.36
2022-08-16T09:17:49.268Z,49.57
2022-08-16T09:18:35.943Z,49.87
2022-08-16T09:19:32.892Z,50.04
2022-08-16T09:20:29.672Z,48.83
2022-08-16T09:21:31.272Z,48.35
2022-08-16T09:22:29.314Z,49.35
2022-08-16T09:23:29.347Z,50.09
2022-08-16T09:24:51.783Z,49.90
2022-08-16T09:25:33.676Z,50.49
2022-08-16T09:26:44.520Z,50.41
2022-08-16T09:27:29.273Z,51.23
2022-08-16T09:29:13.903Z,51.25
2022-08-16T09:29:44.885Z,51.64
2022-08-16T09:30:32.620Z,52.11
2022-08-16T09:31:29.249Z,51.20
2022-08-16T09:32:30.499Z,51.07
2022-08-16T09:33:32.611Z,50.26
2022-08-16T09:34:29.231Z,48.83
2022-08-16T09:35:29.184Z,48.14
2022-08-16T09:36:32.343Z,48.17
2022-08-16T09:37:30.149Z,48.27
2022-08-16T09:38:31.738Z,48.54
2022-08-16T09:39:41.048Z,47.56
2022-08-16T09:40:32.667Z,47.83
2022-08-16T09:41:29.132Z,47.63
2022-08-16T09:42:29.138Z,47.41
2022-08-16T09:45:12.989Z,45.79
2022-08-16T09:45:29.370Z,45.77
2022-08-16T09:46:44.463Z,44.67
2022-08-16T09:47:29.084Z,45.67
2022-08-16T09:48:44.392Z,45.60
2022-08-16T09:49:37.037Z,45.89
2022-08-16T09:50:37.225Z,45.67
2022-08-16T09:51:30.803Z,45.38
2022-08-16T09:52:29.050Z,45.55
2022-08-16T09:53:29.020Z,43.96
2022-08-16T09:54:32.432Z,44.37
2022-08-16T09:55:29.016Z,44.49
2022-08-16T09:56:29.049Z,44.98
2022-08-16T09:57:34.680Z,44.89
2022-08-16T09:58:40.702Z,44.89
2022-08-16T09:59:30.589Z,44.18
2022-08-16T10:00:44.742Z,43.88
2022-08-16T10:01:28.958Z,43.37
2022-08-16T10:02:28.977Z,44.04
2022-08-16T10:03:29.604Z,43.65
2022-08-16T10:04:35.802Z,43.74
2022-08-16T10:05:28.921Z,44.31
2022-08-16T10:06:33.358Z,42.82
2022-08-16T10:07:44.183Z,42.31
2022-08-16T10:08:28.930Z,41.99
2022-08-16T10:09:42.318Z,40.92
2022-08-16T10:10:30.745Z,41.31
2022-08-16T10:11:29.172Z,40.94
2022-08-16T10:12:28.875Z,41.15
2022-08-16T10:13:28.844Z,42.03
2022-08-16T10:14:33.148Z,41.64
2022-08-16T10:15:30.084Z,41.25
2022-08-16T10:16:28.820Z,41.84
2022-08-16T10:17:28.902Z,41.45
2022-08-16T10:19:02.390Z,41.23
2022-08-16T10:19:28.792Z,40.55
2022-08-16T10:20:28.851Z,40.45
2022-08-16T10:21:29.123Z,40.45
2022-08-16T10:22:28.752Z,40.74
2022-08-16T10:23:28.799Z,40.25
2022-08-16T10:24:29.038Z,40.64
2022-08-16T10:27:18.139Z,40.74
2022-08-16T10:27:45.733Z,39.78
2022-08-16T10:27:56.815Z,40.84
2022-08-16T10:28:42.171Z,40.16
2022-08-16T10:30:01.033Z,40.03
2022-08-16T10:30:41.386Z,40.23
2022-08-16T10:31:45.376Z,39.86
2022-08-16T10:32:41.395Z,40.86
2022-08-16T10:33:41.338Z,40.88
2022-08-16T10:34:41.327Z,41.39
2022-08-16T10:35:47.005Z,40.70
2022-08-16T10:36:41.313Z,41.37
2022-08-16T10:37:41.309Z,41.00
2022-08-16T10:38:41.983Z,40.98
2022-08-16T10:39:42.361Z,40.29
2022-08-16T10:40:41.295Z,40.47
2022-08-16T10:41:41.262Z,40.27
2022-08-16T10:42:41.336Z,40.56
2022-08-16T10:43:41.246Z,40.45
2022-08-16T10:44:42.493Z,40.23
2022-08-16T10:45:41.987Z,39.74
2022-08-16T10:46:42.234Z,38.00
2022-08-16T10:47:41.235Z,39.49
2022-08-16T10:48:41.203Z,39.78
2022-08-16T10:49:41.298Z,39.49
2022-08-16T10:50:41.205Z,38.88
2022-08-16T10:52:03.225Z,38.59
2022-08-16T10:53:41.149Z,37.79
2022-08-16T10:55:45.171Z,38.18
2022-08-16T10:56:55.595Z,37.90
2022-08-16T10:57:41.124Z,39.47
2022-08-16T10:58:41.415Z,37.04
2022-08-16T10:59:51.730Z,38.23
2022-08-16T11:00:41.114Z,37.73
2022-08-16T11:01:44.052Z,37.31
2022-08-16T11:02:59.534Z,37.39
2022-08-16T11:03:47.903Z,37.39
2022-08-16T11:06:41.166Z,37.29
2022-08-16T11:07:43.180Z,37.39
2022-08-16T11:08:45.461Z,36.80
2022-08-16T11:09:43.831Z,37.00
2022-08-16T11:12:41.022Z,36.71
2022-08-16T11:15:11.355Z,36.67
2022-08-16T11:15:41.882Z,36.94
2022-08-16T11:17:44.745Z,35.79
2022-08-16T11:19:03.432Z,36.22
2022-08-16T11:20:42.701Z,37.04
2022-08-16T11:22:39.227Z,37.84
2022-08-16T11:22:52.433Z,38.13
2022-08-16T11:23:40.858Z,37.84
2022-08-16T11:24:43.259Z,37.05
2022-08-16T11:26:40.877Z,36.53
2022-08-16T11:27:40.824Z,35.94
2022-08-16T11:29:40.798Z,37.10
2022-08-16T11:30:40.868Z,35.91
2022-08-16T11:31:40.780Z,35.21
2022-08-16T11:32:40.829Z,35.95
2022-08-16T11:33:56.132Z,34.57
2022-08-16T11:35:05.824Z,34.26
2022-08-16T11:35:44.349Z,33.41
2022-08-16T11:36:59.273Z,34.64
2022-08-16T11:38:51.001Z,36.27
2022-08-16T11:39:40.749Z,37.38
2022-08-16T11:40:44.374Z,37.78
2022-08-16T11:41:43.670Z,37.46
2022-08-16T11:42:40.693Z,37.99
2022-08-16T11:43:40.691Z,39.40
2022-08-16T11:44:52.705Z,39.29
2022-08-16T11:45:42.433Z,38.76
2022-08-16T11:46:45.410Z,37.54
2022-08-16T11:47:40.625Z,36.82
2022-08-16T11:48:40.619Z,36.32
2022-08-16T11:49:40.618Z,36.00
2022-08-16T11:50:40.629Z,35.69
2022-08-16T11:51:40.582Z,34.99
2022-08-16T11:52:40.577Z,34.72
2022-08-16T11:53:40.571Z,35.69
2022-08-16T11:54:40.555Z,34.58
2022-08-16T11:55:40.541Z,34.68
2022-08-16T11:56:52.833Z,33.89
2022-08-16T11:57:40.564Z,33.59
2022-08-16T11:58:40.572Z,33.89
2022-08-16T11:59:40.848Z,34.89
2022-08-16T12:00:51.897Z,35.21
2022-08-16T12:01:54.729Z,35.58
2022-08-16T12:02:45.790Z,34.91
2022-08-16T12:03:42.302Z,35.61
2022-08-16T12:04:40.546Z,35.38
2022-08-16T12:05:40.465Z,35.07
2022-08-16T12:06:40.907Z,34.16
2022-08-16T12:07:40.431Z,33.73
2022-08-16T12:08:40.465Z,32.24
2022-08-16T12:09:43.363Z,32.43
2022-08-16T12:10:40.432Z,31.54
2022-08-16T12:11:40.408Z,32.05
2022-08-16T12:12:40.378Z,31.76
2022-08-16T12:13:40.746Z,32.28
2022-08-16T12:14:40.401Z,33.23
2022-08-16T12:15:40.345Z,32.34
2022-08-16T12:16:40.357Z,32.76
2022-08-16T12:17:40.356Z,31.95
2022-08-16T12:18:40.351Z,32.34
2022-08-16T12:19:40.341Z,31.85
2022-08-16T12:20:40.669Z,32.96
2022-08-16T12:21:58.892Z,34.38
2022-08-16T12:22:40.306Z,34.50
2022-08-16T12:23:40.281Z,34.50
2022-08-16T12:24:40.257Z,34.09
2022-08-16T12:25:40.256Z,34.18
2022-08-16T12:26:40.293Z,34.45
2022-08-16T12:27:40.629Z,33.58
2022-08-16T12:28:54.925Z,33.67
2022-08-16T12:29:40.222Z,32.87
2022-08-16T12:30:40.209Z,32.97
2022-08-16T12:32:01.119Z,32.58
2022-08-16T12:32:42.022Z,33.40
2022-08-16T12:33:44.599Z,33.59
2022-08-16T12:34:50.944Z,33.48
2022-08-16T12:35:40.203Z,33.17
2022-08-16T12:36:40.143Z,32.97
2022-08-16T12:37:41.478Z,33.36
2022-08-16T12:38:46.698Z,33.28
2022-08-16T12:39:47.163Z,33.09
2022-08-16T12:40:41.982Z,33.40
2022-08-16T12:41:45.693Z,33.38
2022-08-16T12:42:40.092Z,33.46
2022-08-16T12:43:44.656Z,32.97
2022-08-16T12:44:40.163Z,32.97
2022-08-16T12:45:40.107Z,33.17
2022-08-16T12:46:40.344Z,32.67
2022-08-16T12:47:40.053Z,32.55
2022-08-16T12:48:40.020Z,31.84
2022-08-16T12:49:42.053Z,31.95
2022-08-16T12:50:40.065Z,32.16
2022-08-16T12:51:59.640Z,32.99
2022-08-16T12:52:44.400Z,34.11
2022-08-16T12:53:40.277Z,35.01
2022-08-16T12:54:39.970Z,35.93
2022-08-16T12:55:41.792Z,36.14
2022-08-16T12:56:39.968Z,36.43
2022-08-16T12:57:39.976Z,35.40
2022-08-16T12:58:48.762Z,34.60
2022-08-16T12:59:39.934Z,34.45
2022-08-16T13:00:40.183Z,33.44
2022-08-16T13:01:39.895Z,32.34
2022-08-16T13:02:39.938Z,32.05
2022-08-16T13:03:40.699Z,32.15
2022-08-16T13:04:39.861Z,31.77
2022-08-16T13:05:39.890Z,32.15
2022-08-16T13:06:39.860Z,32.35